Aigle Des Mers — FO4883 — position and weather

sailwx.info

Track history (hours):
 
Tides and Currents Weather Stations Pressure Air Temp Water Temp Dewpoint Dewpoint Depression Visibility Wind Speed Wind Dir Waves Ship Positions

Aigle Des Mers

Last reported at 2016-Feb-03 22:33 UTC. Time now 2016-Feb-11 08:50 UTC.
Position N 48°06' W 004°19'.

Type: Fishing. MMSI: 227318010.

Date/timePositionNaut miles runAvg speedWind from/ knotsBaromVisibWave heightAir tempDewpointWater temp
2016-Feb-03 22:33N 48°06' W 004°19'0 0.0
2016-Feb-03 21:33N 48°06' W 004°19'2 1.7
2016-Feb-03 20:33N 48°08' W 004°20'0 0.1
2016-Feb-03 19:34N 48°08' W 004°20'5 5.2
2016-Feb-03 18:34N 48°12' W 004°25'5 4.6
2016-Feb-03 17:33N 48°10' W 004°31'9 7.0
2016-Feb-03 16:15N 48°06' W 004°19'0 0.0
2016-Feb-02 20:34N 48°06' W 004°19'3 3.5
2016-Feb-02 19:33N 48°09' W 004°20'4 4.3
2016-Feb-02 18:34N 48°11' W 004°26'1 1.0
2016-Feb-02 17:33N 48°11' W 004°28'3 3.4
2016-Feb-02 16:33N 48°09' W 004°24'4 0.2
2016-Feb-01 18:29N 48°06' W 004°19'3 3.0
2016-Feb-01 17:33N 48°07' W 004°23'3 2.7
2016-Feb-01 16:31N 48°06' W 004°19'  
2016-Jan-28 23:33N 48°06' W 004°19'0 0.0
2016-Jan-28 22:33N 48°06' W 004°19'0 0.0
2016-Jan-28 21:34N 48°06' W 004°19'7 4.7
2016-Jan-28 20:08N 48°11' W 004°27'0 0.1
2016-Jan-28 19:34N 48°11' W 004°27'2 2.3
2016-Jan-28 18:33N 48°13' W 004°28'8 8.2
2016-Jan-28 17:34N 48°08' W 004°37'6 5.9
2016-Jan-28 16:34N 48°09' W 004°29'7 7.0
2016-Jan-28 15:33N 48°06' W 004°19'0 0.0
2016-Jan-28 04:30N 48°06' W 004°20'0 0.1
2016-Jan-28 03:34N 48°06' W 004°20'0 0.1
2016-Jan-28 02:31N 48°06' W 004°19'2 1.9
2016-Jan-28 01:33N 48°07' W 004°18'6 6.0
2016-Jan-28 00:34N 48°12' W 004°25'2 2.0
2016-Jan-27 23:34N 48°10' W 004°24'2 2.5
2016-Jan-27 22:34N 48°11' W 004°27'2 2.2
2016-Jan-27 21:33N 48°09' W 004°25'5 0.1
2016-Jan-25 23:21N 48°06' W 004°20'0 0.1
2016-Jan-25 22:33N 48°06' W 004°19'5 5.5
2016-Jan-25 21:34N 48°11' W 004°20'2 1.6
2016-Jan-25 20:34N 48°11' W 004°23'1 0.6
2016-Jan-25 19:34N 48°12' W 004°24'4 4.2
2016-Jan-25 18:33N 48°11' W 004°30'7 7.0
2016-Jan-25 17:34N 48°09' W 004°40'7 7.2
2016-Jan-25 16:33N 48°08' W 004°29'7 6.7
2016-Jan-25 15:33N 48°06' W 004°20'0 0.0
2016-Jan-24 23:33N 48°06' W 004°20'  
Track history (hours):
 
Tides and Currents Weather Stations Pressure Air Temp Water Temp Dewpoint Dewpoint Depression Visibility Wind Speed Wind Dir Waves Ship Positions

Aigle Des Mers

Last reported at 2016-Feb-03 22:33 UTC. Time now 2016-Feb-11 08:50 UTC.
Position N 48°06' W 004°19'.

Type: Fishing. MMSI: 227318010.

Date/timePositionNaut miles runAvg speedWind from/ knotsBaromVisibWave heightAir tempDewpointWater temp
2016-Feb-03 22:33N 48°06' W 004°19'0 0.0
2016-Feb-03 21:33N 48°06' W 004°19'2 1.7
2016-Feb-03 20:33N 48°08' W 004°20'0 0.1
2016-Feb-03 19:34N 48°08' W 004°20'5 5.2
2016-Feb-03 18:34N 48°12' W 004°25'5 4.6
2016-Feb-03 17:33N 48°10' W 004°31'9 7.0
2016-Feb-03 16:15N 48°06' W 004°19'0 0.0
2016-Feb-02 20:34N 48°06' W 004°19'3 3.5
2016-Feb-02 19:33N 48°09' W 004°20'4 4.3
2016-Feb-02 18:34N 48°11' W 004°26'1 1.0
2016-Feb-02 17:33N 48°11' W 004°28'3 3.4
2016-Feb-02 16:33N 48°09' W 004°24'4 0.2
2016-Feb-01 18:29N 48°06' W 004°19'3 3.0
2016-Feb-01 17:33N 48°07' W 004°23'3 2.7
2016-Feb-01 16:31N 48°06' W 004°19'  
2016-Jan-28 23:33N 48°06' W 004°19'0 0.0
2016-Jan-28 22:33N 48°06' W 004°19'0 0.0
2016-Jan-28 21:34N 48°06' W 004°19'7 4.7
2016-Jan-28 20:08N 48°11' W 004°27'0 0.1
2016-Jan-28 19:34N 48°11' W 004°27'2 2.3
2016-Jan-28 18:33N 48°13' W 004°28'8 8.2
2016-Jan-28 17:34N 48°08' W 004°37'6 5.9
2016-Jan-28 16:34N 48°09' W 004°29'7 7.0
2016-Jan-28 15:33N 48°06' W 004°19'0 0.0
2016-Jan-28 04:30N 48°06' W 004°20'0 0.1
2016-Jan-28 03:34N 48°06' W 004°20'0 0.1
2016-Jan-28 02:31N 48°06' W 004°19'2 1.9
2016-Jan-28 01:33N 48°07' W 004°18'6 6.0
2016-Jan-28 00:34N 48°12' W 004°25'2 2.0
2016-Jan-27 23:34N 48°10' W 004°24'2 2.5
2016-Jan-27 22:34N 48°11' W 004°27'2 2.2
2016-Jan-27 21:33N 48°09' W 004°25'5 0.1
2016-Jan-25 23:21N 48°06' W 004°20'0 0.1
2016-Jan-25 22:33N 48°06' W 004°19'5 5.5
2016-Jan-25 21:34N 48°11' W 004°20'2 1.6
2016-Jan-25 20:34N 48°11' W 004°23'1 0.6
2016-Jan-25 19:34N 48°12' W 004°24'4 4.2
2016-Jan-25 18:33N 48°11' W 004°30'7 7.0
2016-Jan-25 17:34N 48°09' W 004°40'7 7.2
2016-Jan-25 16:33N 48°08' W 004°29'7 6.7
2016-Jan-25 15:33N 48°06' W 004°20'0 0.0
2016-Jan-24 23:33N 48°06' W 004°20'  

Dump ship's entire track history